sensor_id;sensor_type;location;lat;lon;timestamp;pressure;altitude;pressure_sealevel;temperature;humidity
74982;BME280;63532;50.766;18.944;2022-10-31T10:36:38;99055.13;;;22.72;64.11
74982;BME280;63532;50.766;18.944;2022-10-31T10:39:50;99055.63;;;23.04;63.53
74982;BME280;63532;50.766;18.944;2022-10-31T10:43:21;99047.75;;;23.31;62.56
74982;BME280;63532;50.766;18.944;2022-10-31T10:46:34;99045.94;;;23.48;62.45
74982;BME280;63532;50.766;18.944;2022-10-31T10:50:07;99054.19;;;23.60;62.09
74982;BME280;63532;50.766;18.944;2022-10-31T10:53:28;99047.22;;;23.69;61.92
74982;BME280;63532;50.766;18.944;2022-10-31T10:57:11;99042.09;;;23.72;61.52
74982;BME280;63532;50.766;18.944;2022-10-31T11:00:35;99037.81;;;23.76;61.45
74982;BME280;63532;50.766;18.944;2022-10-31T11:03:43;99036.56;;;23.84;61.31
74982;BME280;63532;50.766;18.944;2022-10-31T11:06:56;99039.66;;;23.87;61.43
74982;BME280;63532;50.766;18.944;2022-10-31T11:10:12;99040.00;;;23.91;61.16
74982;BME280;63532;50.766;18.944;2022-10-31T11:13:22;99029.88;;;23.91;61.39
74982;BME280;63532;50.766;18.944;2022-10-31T11:16:31;99038.69;;;23.93;61.70
74982;BME280;63532;50.766;18.944;2022-10-31T11:19:43;99042.03;;;23.96;61.58
74982;BME280;63532;50.766;18.944;2022-10-31T11:22:48;99043.19;;;24.00;61.40
74982;BME280;63532;50.766;18.944;2022-10-31T11:25:56;99037.41;;;24.13;61.24
74982;BME280;63532;50.766;18.944;2022-10-31T11:29:02;99039.75;;;24.21;61.08
74982;BME280;63532;50.766;18.944;2022-10-31T11:32:16;99029.16;;;24.24;60.82
74982;BME280;63532;50.766;18.944;2022-10-31T11:35:25;99027.66;;;24.34;59.94
74982;BME280;63532;50.766;18.944;2022-10-31T11:38:33;99022.66;;;24.47;60.36
74982;BME280;63532;50.766;18.944;2022-10-31T11:41:45;99028.50;;;24.51;60.21
74982;BME280;63532;50.766;18.944;2022-10-31T11:44:51;99033.16;;;24.50;60.34
74982;BME280;63532;50.766;18.944;2022-10-31T11:47:58;99022.66;;;24.47;60.56
74982;BME280;63532;50.766;18.944;2022-10-31T11:51:06;99023.19;;;24.44;60.75
74982;BME280;63532;50.766;18.944;2022-10-31T11:54:20;99025.84;;;24.39;60.95
74982;BME280;63532;50.766;18.944;2022-10-31T11:57:31;99027.16;;;24.37;61.13
74982;BME280;63532;50.766;18.944;2022-10-31T12:00:38;99032.31;;;24.33;61.39
74982;BME280;63532;50.766;18.944;2022-10-31T12:03:54;99020.16;;;24.29;61.35
74982;BME280;63532;50.766;18.944;2022-10-31T12:07:08;99021.00;;;24.30;61.67
74982;BME280;63532;50.766;18.944;2022-10-31T12:10:13;99018.25;;;24.30;61.82
74982;BME280;63532;50.766;18.944;2022-10-31T12:13:32;99021.00;;;24.30;61.94
74982;BME280;63532;50.766;18.944;2022-10-31T12:16:49;99020.50;;;24.33;62.07
74982;BME280;63532;50.766;18.944;2022-10-31T12:20:04;99015.34;;;24.36;62.52
74982;BME280;63532;50.766;18.944;2022-10-31T12:23:28;99010.44;;;24.38;62.58
74982;BME280;63532;50.766;18.944;2022-10-31T12:26:52;99008.53;;;24.39;62.76
74982;BME280;63532;50.766;18.944;2022-10-31T12:30:21;99013.19;;;24.38;62.71
74982;BME280;63532;50.766;18.944;2022-10-31T12:33:40;99005.69;;;24.50;62.60
74982;BME280;63532;50.766;18.944;2022-10-31T12:37:01;99005.19;;;24.70;62.50
74982;BME280;63532;50.766;18.944;2022-10-31T12:40:42;99009.03;;;24.86;62.46
74982;BME280;63532;50.766;18.944;2022-10-31T12:44:22;98991.03;;;24.95;62.26
74982;BME280;63532;50.766;18.944;2022-10-31T12:47:59;99000.19;;;25.01;62.77
74982;BME280;63532;50.766;18.944;2022-10-31T12:51:20;98995.28;;;25.03;62.81
74982;BME280;63532;50.766;18.944;2022-10-31T12:54:47;98993.38;;;25.03;62.86
74982;BME280;63532;50.766;18.944;2022-10-31T12:58:05;98995.53;;;25.01;62.89
74982;BME280;63532;50.766;18.944;2022-10-31T13:01:16;98991.88;;;24.96;63.08
74982;BME280;63532;50.766;18.944;2022-10-31T13:04:36;98987.09;;;24.91;63.18
74982;BME280;63532;50.766;18.944;2022-10-31T13:07:47;98994.22;;;24.87;63.35
74982;BME280;63532;50.766;18.944;2022-10-31T13:11:02;98988.03;;;24.80;63.47
74982;BME280;63532;50.766;18.944;2022-10-31T13:14:22;98993.22;;;24.76;63.11
74982;BME280;63532;50.766;18.944;2022-10-31T13:17:33;98998.44;;;24.78;63.43
74982;BME280;63532;50.766;18.944;2022-10-31T13:20:45;98996.28;;;24.80;63.49
74982;BME280;63532;50.766;18.944;2022-10-31T13:23:59;98997.94;;;24.81;63.47
74982;BME280;63532;50.766;18.944;2022-10-31T13:27:13;99004.03;;;24.83;63.38
74982;BME280;63532;50.766;18.944;2022-10-31T13:30:26;98994.72;;;24.84;63.16
74982;BME280;63532;50.766;18.944;2022-10-31T13:33:38;98995.63;;;24.89;63.01
74982;BME280;63532;50.766;18.944;2022-10-31T13:36:58;98993.69;;;24.90;62.90
74982;BME280;63532;50.766;18.944;2022-10-31T13:40:16;99010.16;;;24.90;62.80
74982;BME280;63532;50.766;18.944;2022-10-31T13:43:49;98998.63;;;24.88;62.81
74982;BME280;63532;50.766;18.944;2022-10-31T13:47:03;98999.13;;;24.85;63.20
74982;BME280;63532;50.766;18.944;2022-10-31T13:50:27;99001.44;;;24.76;63.24
74982;BME280;63532;50.766;18.944;2022-10-31T13:53:43;98994.97;;;24.66;62.87
74982;BME280;63532;50.766;18.944;2022-10-31T13:57:00;99002.53;;;24.58;62.06
74982;BME280;63532;50.766;18.944;2022-10-31T14:00:07;98996.38;;;24.51;61.82
74982;BME280;63532;50.766;18.944;2022-10-31T14:03:27;98997.41;;;24.45;62.56
74982;BME280;63532;50.766;18.944;2022-10-31T14:06:57;98991.81;;;24.40;62.75
74982;BME280;63532;50.766;18.944;2022-10-31T14:10:21;98990.72;;;24.41;63.00
74982;BME280;63532;50.766;18.944;2022-10-31T14:13:33;98990.47;;;24.43;62.84
74982;BME280;63532;50.766;18.944;2022-10-31T14:16:46;98991.56;;;24.42;62.97
74982;BME280;63532;50.766;18.944;2022-10-31T14:20:24;98992.88;;;24.39;62.83
74982;BME280;63532;50.766;18.944;2022-10-31T14:23:45;98985.16;;;24.36;62.43
74982;BME280;63532;50.766;18.944;2022-10-31T14:26:58;98983.72;;;24.34;62.66
74982;BME280;63532;50.766;18.944;2022-10-31T14:30:18;98979.56;;;24.31;62.86
74982;BME280;63532;50.766;18.944;2022-10-31T14:33:26;98983.88;;;24.27;62.76
74982;BME280;63532;50.766;18.944;2022-10-31T14:36:40;98983.53;;;24.23;62.96
74982;BME280;63532;50.766;18.944;2022-10-31T14:40:02;98984.28;;;24.19;62.89
74982;BME280;63532;50.766;18.944;2022-10-31T14:43:39;98980.53;;;24.25;62.92
74982;BME280;63532;50.766;18.944;2022-10-31T14:47:00;98973.09;;;24.37;62.39
74982;BME280;63532;50.766;18.944;2022-10-31T14:50:23;98970.78;;;24.46;61.87
74982;BME280;63532;50.766;18.944;2022-10-31T14:53:47;98983.97;;;24.49;61.61
74982;BME280;63532;50.766;18.944;2022-10-31T14:56:56;98971.06;;;24.49;62.14
74982;BME280;63532;50.766;18.944;2022-10-31T15:00:16;98976.31;;;24.51;62.13
74982;BME280;63532;50.766;18.944;2022-10-31T15:03:27;98960.09;;;24.49;62.25
74982;BME280;63532;50.766;18.944;2022-10-31T15:06:40;98966.66;;;24.48;62.39
74982;BME280;63532;50.766;18.944;2022-10-31T15:09:55;98966.09;;;24.46;62.72
74982;BME280;63532;50.766;18.944;2022-10-31T15:13:19;98964.94;;;24.42;62.76
74982;BME280;63532;50.766;18.944;2022-10-31T15:16:28;98969.25;;;24.38;62.88
74982;BME280;63532;50.766;18.944;2022-10-31T15:19:37;98969.75;;;24.35;63.16
74982;BME280;63532;50.766;18.944;2022-10-31T15:22:42;98965.00;;;24.31;63.92
74982;BME280;63532;50.766;18.944;2022-10-31T15:25:48;98963.59;;;24.28;64.31
74982;BME280;63532;50.766;18.944;2022-10-31T15:29:01;98968.47;;;24.26;64.85
74982;BME280;63532;50.766;18.944;2022-10-31T15:32:18;98965.75;;;24.26;65.23
74982;BME280;63532;50.766;18.944;2022-10-31T15:35:26;98965.41;;;24.22;64.72
74982;BME280;63532;50.766;18.944;2022-10-31T15:38:32;98971.13;;;24.21;64.70
74982;BME280;63532;50.766;18.944;2022-10-31T15:41:44;98970.56;;;24.19;64.22
74982;BME280;63532;50.766;18.944;2022-10-31T15:44:59;98973.78;;;24.16;64.76
74982;BME280;63532;50.766;18.944;2022-10-31T15:48:15;98977.84;;;24.13;64.57
74982;BME280;63532;50.766;18.944;2022-10-31T15:51:26;98983.00;;;24.10;64.93
74982;BME280;63532;50.766;18.944;2022-10-31T15:54:44;98981.56;;;24.07;64.86
74982;BME280;63532;50.766;18.944;2022-10-31T15:57:52;98976.56;;;24.04;64.77
74982;BME280;63532;50.766;18.944;2022-10-31T16:01:02;98977.34;;;24.00;64.69
74982;BME280;63532;50.766;18.944;2022-10-31T16:04:22;98974.50;;;23.95;64.50
74982;BME280;63532;50.766;18.944;2022-10-31T16:07:28;98973.31;;;23.90;64.85
74982;BME280;63532;50.766;18.944;2022-10-31T16:10:34;98973.22;;;23.85;64.43
74982;BME280;63532;50.766;18.944;2022-10-31T16:13:42;98978.63;;;23.80;64.73
74982;BME280;63532;50.766;18.944;2022-10-31T16:16:58;98982.44;;;23.79;64.81
74982;BME280;63532;50.766;18.944;2022-10-31T16:20:07;98981.28;;;23.75;64.95
74982;BME280;63532;50.766;18.944;2022-10-31T16:23:24;98977.94;;;23.73;64.98
74982;BME280;63532;50.766;18.944;2022-10-31T16:26:30;98984.50;;;23.72;64.98
74982;BME280;63532;50.766;18.944;2022-10-31T16:29:41;98986.66;;;23.70;65.25
74982;BME280;63532;50.766;18.944;2022-10-31T16:32:54;98987.38;;;23.66;65.50
74982;BME280;63532;50.766;18.944;2022-10-31T16:36:32;98981.53;;;23.62;65.18
74982;BME280;63532;50.766;18.944;2022-10-31T16:39:41;98992.19;;;23.58;65.43
